^^
Station Historical Data
Daily Summary for January 21, 2018 Units:  Both    English   Metric
« Previous Day
Next Day »
Daily Weekly Monthly Yearly Custom
  High: Low: Average:
Temperature: TemperatureF °F /  -17.8 °C 64.6 °F /  18.1 °C 73.1 °F /  22.8 °C
Dew Point: DewpointF °F /  -17.8 °C 46.4 °F /  8 °C 53.9 °F /  12.2 °C
Humidity: Humidity% 28% 52%
Wind Speed: WindSpeedMPHmph /  0km/h - 2.3mph /  3.7km/h
Wind Gust: WindSpeedGustMPHmph /  0km/h - -
Wind- - SW
Pressure: PressureIn in /  0 hPa 29.60 in /  1002.3 hPa -
Precipitation: 0.00 in /  0 mm    
Historical Graphs
 
 
Tabular Data for January 21, 2018
Time Temperature Dew Point Pressure Wind Wind Speed Wind Gust Humidity Rainfall Rate (Hourly) solar Conditions
TemperatureF °F /  -17.8 °C DewpointF °F /  -17.8 °C PressureInin /  0hPa Calm     Humidity% HourlyPrecipInin /  0mm SolarRadiationWatts/m^2 W/m2 Conditions
00:00 68.5 °F /  20.3 °C 56.3 °F /  13.5 °C 29.72in /  1006.3hPa Calm   1.0mph /  1.6km/h 65% 0.00in /  0mm 0.0 W/m2
00:05 68.4 °F /  20.2 °C 56.5 °F /  13.6 °C 29.71in /  1006hPa Calm     66% 0.00in /  0mm 0.0 W/m2
00:10 68.4 °F /  20.2 °C 56.5 °F /  13.6 °C 29.72in /  1006.3hPa Calm   2.0mph /  3.2km/h 66% 0.00in /  0mm 0.0 W/m2
00:15 68.2 °F /  20.1 °C 56.8 °F /  13.8 °C 29.71in /  1006hPa Calm   1.0mph /  1.6km/h 67% 0.00in /  0mm 0.0 W/m2
00:20 68.2 °F /  20.1 °C 57.2 °F /  14 °C 29.71in /  1006hPa Calm     68% 0.00in /  0mm 0.0 W/m2
00:26 68.0 °F /  20 °C 57.0 °F /  13.9 °C 29.71in /  1006hPa Calm   1.0mph /  1.6km/h 68% 0.00in /  0mm 0.0 W/m2
00:31 67.8 °F /  19.9 °C 56.8 °F /  13.8 °C 29.71in /  1006hPa Calm     68% 0.00in /  0mm 0.0 W/m2
00:36 67.8 °F /  19.9 °C 56.8 °F /  13.8 °C 29.70in /  1005.6hPa Calm     68% 0.00in /  0mm 0.0 W/m2
00:41 67.6 °F /  19.8 °C 57.0 °F /  13.9 °C 29.70in /  1005.6hPa Calm     69% 0.00in /  0mm 0.0 W/m2
00:46 67.6 °F /  19.8 °C 57.0 °F /  13.9 °C 29.70in /  1005.6hPa Calm     69% 0.00in /  0mm 0.0 W/m2
00:51 67.6 °F /  19.8 °C 57.0 °F /  13.9 °C 29.70in /  1005.6hPa Calm     69% 0.00in /  0mm 0.0 W/m2
00:56 67.6 °F /  19.8 °C 57.0 °F /  13.9 °C 29.70in /  1005.6hPa Calm     69% 0.00in /  0mm 0.0 W/m2
01:01 67.5 °F /  19.7 °C 57.0 °F /  13.9 °C 29.69in /  1005.3hPa Calm   1.0mph /  1.6km/h 69% 0.00in /  0mm 0.0 W/m2
01:07 67.5 °F /  19.7 °C 57.0 °F /  13.9 °C 29.69in /  1005.3hPa Calm   1.0mph /  1.6km/h 69% 0.00in /  0mm 0.0 W/m2
01:12 67.5 °F /  19.7 °C 57.0 °F /  13.9 °C 29.69in /  1005.3hPa Calm     69% 0.00in /  0mm 0.0 W/m2
01:17 67.5 °F /  19.7 °C 57.0 °F /  13.9 °C 29.68in /  1005hPa Calm     69% 0.00in /  0mm 0.0 W/m2
01:22 67.5 °F /  19.7 °C 57.4 °F /  14.1 °C 29.68in /  1005hPa Calm     70% 0.00in /  0mm 0.0 W/m2
01:27 67.5 °F /  19.7 °C 57.0 °F /  13.9 °C 29.68in /  1005hPa Calm     69% 0.00in /  0mm 0.0 W/m2
01:32 67.5 °F /  19.7 °C 57.0 °F /  13.9 °C 29.67in /  1004.6hPa Calm   1.0mph /  1.6km/h 69% 0.00in /  0mm 0.0 W/m2
01:37 67.5 °F /  19.7 °C 57.0 °F /  13.9 °C 29.68in /  1005hPa Calm     69% 0.00in /  0mm 0.0 W/m2
01:42 67.5 °F /  19.7 °C 57.0 °F /  13.9 °C 29.67in /  1004.6hPa Calm     69% 0.00in /  0mm 0.0 W/m2
01:48 67.5 °F /  19.7 °C 57.0 °F /  13.9 °C 29.67in /  1004.6hPa Calm     69% 0.00in /  0mm 0.0 W/m2
01:53 67.5 °F /  19.7 °C 57.0 °F /  13.9 °C 29.67in /  1004.6hPa Calm     69% 0.00in /  0mm 0.0 W/m2
01:58 67.5 °F /  19.7 °C 56.5 °F /  13.6 °C 29.67in /  1004.6hPa Calm     68% 0.00in /  0mm 0.0 W/m2
02:03 67.5 °F /  19.7 °C 57.0 °F /  13.9 °C 29.67in /  1004.6hPa Calm     69% 0.00in /  0mm 0.0 W/m2
02:08 67.5 °F /  19.7 °C 57.0 °F /  13.9 °C 29.67in /  1004.6hPa SE 0.9mph /  1.4km/h 2.0mph /  3.2km/h 69% 0.00in /  0mm 0.0 W/m2
02:13 67.5 °F /  19.7 °C 56.5 °F /  13.6 °C 29.67in /  1004.6hPa Calm   2.0mph /  3.2km/h 68% 0.00in /  0mm 0.0 W/m2
02:18 67.5 °F /  19.7 °C 56.5 °F /  13.6 °C 29.67in /  1004.6hPa Calm     68% 0.00in /  0mm 0.0 W/m2
02:23 67.5 °F /  19.7 °C 56.5 °F /  13.6 °C 29.67in /  1004.6hPa SSE 2.0mph /  3.2km/h 2.0mph /  3.2km/h 68% 0.00in /  0mm 0.0 W/m2
02:29 67.3 °F /  19.6 °C 56.3 °F /  13.5 °C 29.66in /  1004.3hPa Calm     68% 0.00in /  0mm 0.0 W/m2
02:34 67.3 °F /  19.6 °C 56.3 °F /  13.5 °C 29.67in /  1004.6hPa Calm   1.0mph /  1.6km/h 68% 0.00in /  0mm 0.0 W/m2
02:39 67.3 °F /  19.6 °C 56.3 °F /  13.5 °C 29.67in /  1004.6hPa Calm   1.0mph /  1.6km/h 68% 0.00in /  0mm 0.0 W/m2
02:44 67.1 °F /  19.5 °C 56.1 °F /  13.4 °C 29.66in /  1004.3hPa Calm   3.0mph /  4.8km/h 68% 0.00in /  0mm 0.0 W/m2
02:49 66.9 °F /  19.4 °C 55.9 °F /  13.3 °C 29.66in /  1004.3hPa Calm   3.0mph /  4.8km/h 68% 0.00in /  0mm 0.0 W/m2
02:54 66.9 °F /  19.4 °C 55.6 °F /  13.1 °C 29.66in /  1004.3hPa ESE 0.9mph /  1.4km/h 1.0mph /  1.6km/h 67% 0.00in /  0mm 0.0 W/m2
03:00 66.9 °F /  19.4 °C 55.6 °F /  13.1 °C 29.66in /  1004.3hPa Calm   3.0mph /  4.8km/h 67% 0.00in /  0mm 0.0 W/m2
03:05 66.9 °F /  19.4 °C 55.2 °F /  12.9 °C 29.66in /  1004.3hPa ESE 0.9mph /  1.4km/h 3.0mph /  4.8km/h 66% 0.00in /  0mm 0.0 W/m2
03:10 66.9 °F /  19.4 °C 54.3 °F /  12.4 °C 29.66in /  1004.3hPa Calm   1.0mph /  1.6km/h 64% 0.00in /  0mm 0.0 W/m2
03:16 66.9 °F /  19.4 °C 54.0 °F /  12.2 °C 29.66in /  1004.3hPa Calm   1.0mph /  1.6km/h 63% 0.00in /  0mm 0.0 W/m2
03:21 66.9 °F /  19.4 °C 54.0 °F /  12.2 °C 29.66in /  1004.3hPa Calm   2.0mph /  3.2km/h 63% 0.00in /  0mm 0.0 W/m2
03:26 67.1 °F /  19.5 °C 53.6 °F /  12 °C 29.65in /  1003.9hPa East 0.9mph /  1.4km/h 4.0mph /  6.4km/h 62% 0.00in /  0mm 0.0 W/m2
03:31 67.3 °F /  19.6 °C 53.4 °F /  11.9 °C 29.65in /  1003.9hPa Calm   4.0mph /  6.4km/h 61% 0.00in /  0mm 0.0 W/m2
03:36 67.5 °F /  19.7 °C 53.6 °F /  12 °C 29.65in /  1003.9hPa Calm   5.0mph /  8km/h 61% 0.00in /  0mm 0.0 W/m2
03:41 67.6 °F /  19.8 °C 53.8 °F /  12.1 °C 29.65in /  1003.9hPa NE 2.0mph /  3.2km/h 5.0mph /  8km/h 61% 0.00in /  0mm 0.0 W/m2
03:46 67.8 °F /  19.9 °C 53.4 °F /  11.9 °C 29.65in /  1003.9hPa East 2.9mph /  4.7km/h 6.0mph /  9.7km/h 60% 0.00in /  0mm 0.0 W/m2
03:51 68.2 °F /  20.1 °C 53.8 °F /  12.1 °C 29.65in /  1003.9hPa Calm   8.0mph /  12.9km/h 60% 0.00in /  0mm 0.0 W/m2
03:56 68.2 °F /  20.1 °C 53.8 °F /  12.1 °C 29.65in /  1003.9hPa Calm   3.0mph /  4.8km/h 60% 0.00in /  0mm 0.0 W/m2
04:01 68.2 °F /  20.1 °C 53.2 °F /  11.8 °C 29.65in /  1003.9hPa ENE 2.0mph /  3.2km/h 6.0mph /  9.7km/h 59% 0.00in /  0mm 0.0 W/m2
04:07 68.2 °F /  20.1 °C 53.2 °F /  11.8 °C 29.65in /  1003.9hPa East 0.9mph /  1.4km/h 4.0mph /  6.4km/h 59% 0.00in /  0mm 0.0 W/m2
04:12 68.2 °F /  20.1 °C 53.8 °F /  12.1 °C 29.65in /  1003.9hPa Calm   2.0mph /  3.2km/h 60% 0.00in /  0mm 0.0 W/m2
04:17 68.0 °F /  20 °C 53.6 °F /  12 °C 29.65in /  1003.9hPa ENE 0.9mph /  1.4km/h 2.0mph /  3.2km/h 60% 0.00in /  0mm 0.0 W/m2
04:22 67.8 °F /  19.9 °C 53.4 °F /  11.9 °C 29.65in /  1003.9hPa Calm   1.0mph /  1.6km/h 60% 0.00in /  0mm 0.0 W/m2
04:27 67.6 °F /  19.8 °C 53.2 °F /  11.8 °C 29.65in /  1003.9hPa East 2.9mph /  4.7km/h 3.0mph /  4.8km/h 60% 0.00in /  0mm 0.0 W/m2
04:32 67.6 °F /  19.8 °C 53.2 °F /  11.8 °C 29.65in /  1003.9hPa Calm   1.0mph /  1.6km/h 60% 0.00in /  0mm 0.0 W/m2
04:37 67.5 °F /  19.7 °C 53.1 °F /  11.7 °C 29.65in /  1003.9hPa Calm   1.0mph /  1.6km/h 60% 0.00in /  0mm 0.0 W/m2
04:42 67.5 °F /  19.7 °C 52.7 °F /  11.5 °C 29.65in /  1003.9hPa Calm   4.0mph /  6.4km/h 59% 0.00in /  0mm 0.0 W/m2
04:47 67.3 °F /  19.6 °C 52.5 °F /  11.4 °C 29.65in /  1003.9hPa Calm   4.0mph /  6.4km/h 59% 0.00in /  0mm 0.0 W/m2
04:52 67.5 °F /  19.7 °C 52.7 °F /  11.5 °C 29.65in /  1003.9hPa East 2.9mph /  4.7km/h 5.0mph /  8km/h 59% 0.00in /  0mm 0.0 W/m2
04:58 67.3 °F /  19.6 °C 52.5 °F /  11.4 °C 29.65in /  1003.9hPa NE 2.9mph /  4.7km/h 5.0mph /  8km/h 59% 0.00in /  0mm 0.0 W/m2
05:03 67.3 °F /  19.6 °C 52.5 °F /  11.4 °C 29.65in /  1003.9hPa NNE 0.9mph /  1.4km/h 6.0mph /  9.7km/h 59% 0.00in /  0mm 0.0 W/m2
05:08 67.3 °F /  19.6 °C 52.9 °F /  11.6 °C 29.65in /  1003.9hPa NE 0.9mph /  1.4km/h 4.0mph /  6.4km/h 60% 0.00in /  0mm 0.0 W/m2
05:13 67.1 °F /  19.5 °C 52.7 °F /  11.5 °C 29.65in /  1003.9hPa East 2.0mph /  3.2km/h 3.0mph /  4.8km/h 60% 0.00in /  0mm 0.0 W/m2
05:18 66.9 °F /  19.4 °C 53.1 °F /  11.7 °C 29.65in /  1003.9hPa Calm   5.0mph /  8km/h 61% 0.00in /  0mm 0.0 W/m2
05:23 66.7 °F /  19.3 °C 52.9 °F /  11.6 °C 29.66in /  1004.3hPa Calm   3.0mph /  4.8km/h 61% 0.00in /  0mm 0.0 W/m2
05:28 66.7 °F /  19.3 °C 53.2 °F /  11.8 °C 29.66in /  1004.3hPa Calm   3.0mph /  4.8km/h 62% 0.00in /  0mm 0.0 W/m2
05:33 66.6 °F /  19.2 °C 53.1 °F /  11.7 °C 29.66in /  1004.3hPa Calm   1.0mph /  1.6km/h 62% 0.00in /  0mm 0.0 W/m2
05:39 66.6 °F /  19.2 °C 53.1 °F /  11.7 °C 29.66in /  1004.3hPa Calm     62% 0.00in /  0mm 0.0 W/m2
05:44 66.4 °F /  19.1 °C 53.4 °F /  11.9 °C 29.66in /  1004.3hPa Calm   2.0mph /  3.2km/h 63% 0.00in /  0mm 0.0 W/m2
05:49 66.2 °F /  19 °C 53.6 °F /  12 °C 29.66in /  1004.3hPa Calm   2.0mph /  3.2km/h 64% 0.00in /  0mm 0.0 W/m2
05:54 65.8 °F /  18.8 °C 53.2 °F /  11.8 °C 29.67in /  1004.6hPa Calm   1.0mph /  1.6km/h 64% 0.00in /  0mm 0.0 W/m2
05:59 65.7 °F /  18.7 °C 53.6 °F /  12 °C 29.66in /  1004.3hPa Calm   1.0mph /  1.6km/h 65% 0.00in /  0mm 0.0 W/m2
06:04 65.7 °F /  18.7 °C 53.6 °F /  12 °C 29.67in /  1004.6hPa Calm   2.0mph /  3.2km/h 65% 0.00in /  0mm 0.0 W/m2
06:09 65.5 °F /  18.6 °C 53.8 °F /  12.1 °C 29.67in /  1004.6hPa ENE 0.9mph /  1.4km/h 2.0mph /  3.2km/h 66% 0.00in /  0mm 0.0 W/m2
06:14 65.5 °F /  18.6 °C 53.8 °F /  12.1 °C 29.67in /  1004.6hPa Calm   1.0mph /  1.6km/h 66% 0.00in /  0mm 0.0 W/m2
06:19 65.1 °F /  18.4 °C 53.4 °F /  11.9 °C 29.67in /  1004.6hPa Calm   3.0mph /  4.8km/h 66% 0.00in /  0mm 0.0 W/m2
06:25 65.1 °F /  18.4 °C 53.4 °F /  11.9 °C 29.67in /  1004.6hPa Calm   1.0mph /  1.6km/h 66% 0.00in /  0mm 0.0 W/m2
06:30 64.9 °F /  18.3 °C 53.2 °F /  11.8 °C 29.68in /  1005hPa Calm     66% 0.00in /  0mm 0.0 W/m2
06:35 64.9 °F /  18.3 °C 53.2 °F /  11.8 °C 29.68in /  1005hPa Calm     66% 0.00in /  0mm 5.0 W/m2
06:40 64.8 °F /  18.2 °C 53.6 °F /  12 °C 29.68in /  1005hPa Calm     67% 0.00in /  0mm 9.0 W/m2
06:45 64.8 °F /  18.2 °C 53.6 °F /  12 °C 29.68in /  1005hPa SE 0.9mph /  1.4km/h 2.0mph /  3.2km/h 67% 0.00in /  0mm 12.0 W/m2
06:50 64.6 °F /  18.1 °C 53.4 °F /  11.9 °C 29.68in /  1005hPa Calm   2.0mph /  3.2km/h 67% 0.00in /  0mm 21.0 W/m2
06:55 64.6 °F /  18.1 °C 53.4 °F /  11.9 °C 29.69in /  1005.3hPa Calm   1.0mph /  1.6km/h 67% 0.00in /  0mm 28.0 W/m2
07:00 64.6 °F /  18.1 °C 53.4 °F /  11.9 °C 29.69in /  1005.3hPa Calm     67% 0.00in /  0mm 35.0 W/m2
07:05 64.6 °F /  18.1 °C 53.8 °F /  12.1 °C 29.69in /  1005.3hPa Calm   1.0mph /  1.6km/h 68% 0.00in /  0mm 40.0 W/m2
07:11 64.8 °F /  18.2 °C 54.0 °F /  12.2 °C 29.69in /  1005.3hPa Calm   2.0mph /  3.2km/h 68% 0.00in /  0mm 47.0 W/m2
07:16 64.9 °F /  18.3 °C 53.8 °F /  12.1 °C 29.69in /  1005.3hPa SSE 0.9mph /  1.4km/h 3.0mph /  4.8km/h 67% 0.00in /  0mm 69.0 W/m2
07:21 65.1 °F /  18.4 °C 53.4 °F /  11.9 °C 29.69in /  1005.3hPa SSE 2.0mph /  3.2km/h 4.0mph /  6.4km/h 66% 0.00in /  0mm 81.0 W/m2
07:26 65.5 °F /  18.6 °C 53.8 °F /  12.1 °C 29.69in /  1005.3hPa SSE 0.9mph /  1.4km/h 3.0mph /  4.8km/h 66% 0.00in /  0mm 100.0 W/m2
07:31 66.0 °F /  18.9 °C 54.0 °F /  12.2 °C 29.69in /  1005.3hPa SSE 2.0mph /  3.2km/h 2.0mph /  3.2km/h 65% 0.00in /  0mm 98.0 W/m2
07:36 66.6 °F /  19.2 °C 54.0 °F /  12.2 °C 29.69in /  1005.3hPa SE 0.9mph /  1.4km/h 3.0mph /  4.8km/h 64% 0.00in /  0mm 95.0 W/m2
07:41 66.9 °F /  19.4 °C 54.9 °F /  12.7 °C 29.69in /  1005.3hPa Calm   1.0mph /  1.6km/h 65% 0.00in /  0mm 97.0 W/m2
07:51 68.4 °F /  20.2 °C 54.3 °F /  12.4 °C 29.69in /  1005.3hPa SSE 2.0mph /  3.2km/h 4.0mph /  6.4km/h 61% 0.00in /  0mm 204.0 W/m2
08:02 69.4 °F /  20.8 °C 54.0 °F /  12.2 °C 29.69in /  1005.3hPa Calm   1.0mph /  1.6km/h 58% 0.00in /  0mm 121.0 W/m2
08:12 70.2 °F /  21.2 °C 53.8 °F /  12.1 °C 29.69in /  1005.3hPa Calm   1.0mph /  1.6km/h 56% 0.00in /  0mm 135.0 W/m2
08:17 70.5 °F /  21.4 °C 54.1 °F /  12.3 °C 29.70in /  1005.6hPa Calm   1.0mph /  1.6km/h 56% 0.00in /  0mm 135.0 W/m2
08:22 70.9 °F /  21.6 °C 54.3 °F /  12.4 °C 29.69in /  1005.3hPa Calm     56% 0.00in /  0mm 158.0 W/m2
08:27 71.1 °F /  21.7 °C 53.6 °F /  12 °C 29.70in /  1005.6hPa Calm     54% 0.00in /  0mm 162.0 W/m2
08:32 71.2 °F /  21.8 °C 54.3 °F /  12.4 °C 29.70in /  1005.6hPa Calm     55% 0.00in /  0mm 160.0 W/m2
08:37 71.6 °F /  22 °C 54.1 °F /  12.3 °C 29.70in /  1005.6hPa Calm     54% 0.00in /  0mm 172.0 W/m2
08:42 72.0 °F /  22.2 °C 54.0 °F /  12.2 °C 29.70in /  1005.6hPa Calm   1.0mph /  1.6km/h 53% 0.00in /  0mm 178.0 W/m2
08:53 72.3 °F /  22.4 °C 54.1 °F /  12.3 °C 29.70in /  1005.6hPa Calm     53% 0.00in /  0mm 160.0 W/m2
08:58 72.7 °F /  22.6 °C 55.0 °F /  12.8 °C 29.70in /  1005.6hPa Calm     54% 0.00in /  0mm 162.0 W/m2
09:03 73.0 °F /  22.8 °C 54.3 °F /  12.4 °C 29.70in /  1005.6hPa Calm     52% 0.00in /  0mm 181.0 W/m2
09:08 73.2 °F /  22.9 °C 54.5 °F /  12.5 °C 29.70in /  1005.6hPa Calm     52% 0.00in /  0mm 193.0 W/m2
09:13 73.6 °F /  23.1 °C 54.3 °F /  12.4 °C 29.70in /  1005.6hPa Calm     51% 0.00in /  0mm 213.0 W/m2
09:18 73.8 °F /  23.2 °C 52.9 °F /  11.6 °C 29.70in /  1005.6hPa Calm     48% 0.00in /  0mm 214.0 W/m2
09:23 74.1 °F /  23.4 °C 53.2 °F /  11.8 °C 29.70in /  1005.6hPa Calm     48% 0.00in /  0mm 202.0 W/m2
09:28 74.7 °F /  23.7 °C 53.6 °F /  12 °C 29.70in /  1005.6hPa Calm     48% 0.00in /  0mm 207.0 W/m2
09:33 74.8 °F /  23.8 °C 52.7 °F /  11.5 °C 29.70in /  1005.6hPa Calm     46% 0.00in /  0mm 221.0 W/m2
09:39 75.0 °F /  23.9 °C 52.9 °F /  11.6 °C 29.70in /  1005.6hPa Calm   1.0mph /  1.6km/h 46% 0.00in /  0mm 244.0 W/m2
09:44 75.2 °F /  24 °C 51.8 °F /  11 °C 29.70in /  1005.6hPa Calm   1.0mph /  1.6km/h 44% 0.00in /  0mm 243.0 W/m2
09:49 75.4 °F /  24.1 °C 51.3 °F /  10.7 °C 29.70in /  1005.6hPa Calm   2.0mph /  3.2km/h 43% 0.00in /  0mm 255.0 W/m2
09:54 75.7 °F /  24.3 °C 52.3 °F /  11.3 °C 29.70in /  1005.6hPa Calm   2.0mph /  3.2km/h 44% 0.00in /  0mm 302.0 W/m2
09:59 75.9 °F /  24.4 °C 52.5 °F /  11.4 °C 29.70in /  1005.6hPa Calm   1.0mph /  1.6km/h 44% 0.00in /  0mm 258.0 W/m2
10:04 76.3 °F /  24.6 °C 52.7 °F /  11.5 °C 29.70in /  1005.6hPa Calm   2.0mph /  3.2km/h 44% 0.00in /  0mm 239.0 W/m2
10:09 76.5 °F /  24.7 °C 52.3 °F /  11.3 °C 29.71in /  1006hPa Calm   3.0mph /  4.8km/h 43% 0.00in /  0mm 271.0 W/m2
10:15 77.2 °F /  25.1 °C 52.3 °F /  11.3 °C 29.71in /  1006hPa NNW 2.9mph /  4.7km/h 4.0mph /  6.4km/h 42% 0.00in /  0mm 986.0 W/m2
10:20 78.4 °F /  25.8 °C 51.4 °F /  10.8 °C 29.70in /  1005.6hPa NNE 0.9mph /  1.4km/h 4.0mph /  6.4km/h 39% 0.00in /  0mm 584.0 W/m2
10:25 79.2 °F /  26.2 °C 50.7 °F /  10.4 °C 29.71in /  1006hPa NW 4.0mph /  6.4km/h 12.0mph /  19.3km/h 37% 0.00in /  0mm 401.0 W/m2
10:35 79.2 °F /  26.2 °C 51.4 °F /  10.8 °C 29.71in /  1006hPa NNW 8.9mph /  14.3km/h 13.0mph /  20.9km/h 38% 0.00in /  0mm 561.0 W/m2
10:40 79.5 °F /  26.4 °C 51.6 °F /  10.9 °C 29.72in /  1006.3hPa NW 6.9mph /  11.1km/h 13.0mph /  20.9km/h 38% 0.00in /  0mm 703.0 W/m2
10:45 79.9 °F /  26.6 °C 51.3 °F /  10.7 °C 29.72in /  1006.3hPa North 8.1mph /  13km/h 15.0mph /  24.1km/h 37% 0.00in /  0mm 691.0 W/m2
10:50 79.7 °F /  26.5 °C 51.1 °F /  10.6 °C 29.71in /  1006hPa NNE 6.9mph /  11.1km/h 12.0mph /  19.3km/h 37% 0.00in /  0mm 969.0 W/m2
10:56 80.1 °F /  26.7 °C 52.2 °F /  11.2 °C 29.72in /  1006.3hPa NNW 4.0mph /  6.4km/h 8.0mph /  12.9km/h 38% 0.00in /  0mm 1148.0 W/m2
11:01 80.2 °F /  26.8 °C 51.6 °F /  10.9 °C 29.72in /  1006.3hPa NNW 2.9mph /  4.7km/h 9.0mph /  14.5km/h 37% 0.00in /  0mm 336.0 W/m2
11:06 80.1 °F /  26.7 °C 52.2 °F /  11.2 °C 29.72in /  1006.3hPa WNW 4.9mph /  7.9km/h 9.0mph /  14.5km/h 38% 0.00in /  0mm 367.0 W/m2
11:11 79.9 °F /  26.6 °C 52.0 °F /  11.1 °C 29.72in /  1006.3hPa North 2.9mph /  4.7km/h 7.0mph /  11.3km/h 38% 0.00in /  0mm 401.0 W/m2
11:16 80.4 °F /  26.9 °C 52.5 °F /  11.4 °C 29.72in /  1006.3hPa NW 8.1mph /  13km/h 13.0mph /  20.9km/h 38% 0.00in /  0mm 1114.0 W/m2
11:21 81.0 °F /  27.2 °C 52.2 °F /  11.2 °C 29.72in /  1006.3hPa Calm   8.0mph /  12.9km/h 37% 0.00in /  0mm 1114.0 W/m2
11:26 81.3 °F /  27.4 °C 53.2 °F /  11.8 °C 29.71in /  1006hPa West 4.9mph /  7.9km/h 12.0mph /  19.3km/h 38% 0.00in /  0mm 747.0 W/m2
11:31 81.9 °F /  27.7 °C 53.1 °F /  11.7 °C 29.72in /  1006.3hPa WNW 4.9mph /  7.9km/h 8.0mph /  12.9km/h 37% 0.00in /  0mm 747.0 W/m2
11:37 82.8 °F /  28.2 °C 53.8 °F /  12.1 °C 29.71in /  1006hPa North 4.9mph /  7.9km/h 7.0mph /  11.3km/h 37% 0.00in /  0mm 1046.0 W/m2
11:42 83.1 °F /  28.4 °C 53.4 °F /  11.9 °C 29.71in /  1006hPa NNE 8.1mph /  13km/h 11.0mph /  17.7km/h 36% 0.00in /  0mm 1025.0 W/m2
11:47 82.9 °F /  28.3 °C 54.0 °F /  12.2 °C 29.70in /  1005.6hPa NW 0.9mph /  1.4km/h 10.0mph /  16.1km/h 37% 0.00in /  0mm 1025.0 W/m2
11:53 82.9 °F /  28.3 °C 54.0 °F /  12.2 °C 29.71in /  1006hPa North 6.0mph /  9.7km/h 10.0mph /  16.1km/h 37% 0.00in /  0mm 1165.0 W/m2
11:58 83.1 °F /  28.4 °C 53.4 °F /  11.9 °C 29.70in /  1005.6hPa NW 8.1mph /  13km/h 8.1mph /  13km/h 36% 0.00in /  0mm 1179.0 W/m2
12:03 83.5 °F /  28.6 °C 54.5 °F /  12.5 °C 29.70in /  1005.6hPa SSW 0.9mph /  1.4km/h 9.0mph /  14.5km/h 37% 0.00in /  0mm 1046.0 W/m2
12:08 83.7 °F /  28.7 °C 54.0 °F /  12.2 °C 29.70in /  1005.6hPa NNE 6.9mph /  11.1km/h 13.0mph /  20.9km/h 36% 0.00in /  0mm 1062.0 W/m2
12:13 83.7 °F /  28.7 °C 55.4 °F /  13 °C 29.69in /  1005.3hPa North 2.0mph /  3.2km/h 7.0mph /  11.3km/h 38% 0.00in /  0mm 1078.0 W/m2
12:18 84.2 °F /  29 °C 54.3 °F /  12.4 °C 29.69in /  1005.3hPa North 10.1mph /  16.3km/h 14.0mph /  22.5km/h 36% 0.00in /  0mm 1099.0 W/m2
12:23 84.4 °F /  29.1 °C 54.5 °F /  12.5 °C 29.69in /  1005.3hPa North 8.9mph /  14.3km/h 9.0mph /  14.5km/h 36% 0.00in /  0mm 724.0 W/m2
12:28 84.0 °F /  28.9 °C 54.9 °F /  12.7 °C 29.69in /  1005.3hPa West 11.0mph /  17.7km/h 11.0mph /  17.7km/h 37% 0.00in /  0mm 197.0 W/m2
12:34 83.1 °F /  28.4 °C 54.1 °F /  12.3 °C 29.69in /  1005.3hPa NNW 4.0mph /  6.4km/h 4.0mph /  6.4km/h 37% 0.00in /  0mm 209.0 W/m2
12:39 82.9 °F /  28.3 °C 54.7 °F /  12.6 °C 29.68in /  1005hPa WSW 2.9mph /  4.7km/h 8.0mph /  12.9km/h 38% 0.00in /  0mm 1148.0 W/m2
12:44 83.3 °F /  28.5 °C 54.3 °F /  12.4 °C 29.68in /  1005hPa West 0.9mph /  1.4km/h 9.0mph /  14.5km/h 37% 0.00in /  0mm 1074.0 W/m2
12:49 84.0 °F /  28.9 °C 54.1 °F /  12.3 °C 29.68in /  1005hPa NW 11.0mph /  17.7km/h 17.0mph /  27.4km/h 36% 0.00in /  0mm 1085.0 W/m2
12:54 84.2 °F /  29 °C 54.3 °F /  12.4 °C 29.68in /  1005hPa West 2.0mph /  3.2km/h 12.0mph /  19.3km/h 36% 0.00in /  0mm 1067.0 W/m2
12:59 84.4 °F /  29.1 °C 54.5 °F /  12.5 °C 29.67in /  1004.6hPa West 2.9mph /  4.7km/h 9.0mph /  14.5km/h 36% 0.00in /  0mm 1097.0 W/m2
13:04 84.9 °F /  29.4 °C 53.4 °F /  11.9 °C 29.67in /  1004.6hPa NW 2.9mph /  4.7km/h 8.0mph /  12.9km/h 34% 0.00in /  0mm 1192.0 W/m2
13:09 85.6 °F /  29.8 °C 53.2 °F /  11.8 °C 29.67in /  1004.6hPa NW 8.1mph /  13km/h 15.0mph /  24.1km/h 33% 0.00in /  0mm 1185.0 W/m2
13:14 85.6 °F /  29.8 °C 53.2 °F /  11.8 °C 29.67in /  1004.6hPa NNW 4.0mph /  6.4km/h 10.0mph /  16.1km/h 33% 0.00in /  0mm 420.0 W/m2
13:19 85.6 °F /  29.8 °C 53.2 °F /  11.8 °C 29.67in /  1004.6hPa WNW 2.0mph /  3.2km/h 11.0mph /  17.7km/h 33% 0.00in /  0mm 1134.0 W/m2
13:24 86.4 °F /  30.2 °C 53.1 °F /  11.7 °C 29.67in /  1004.6hPa North 2.0mph /  3.2km/h 14.0mph /  22.5km/h 32% 0.00in /  0mm 1143.0 W/m2
13:29 86.7 °F /  30.4 °C 53.4 °F /  11.9 °C 29.66in /  1004.3hPa NW 0.9mph /  1.4km/h 10.0mph /  16.1km/h 32% 0.00in /  0mm 1215.0 W/m2
13:34 87.1 °F /  30.6 °C 53.6 °F /  12 °C 29.66in /  1004.3hPa West 2.0mph /  3.2km/h 12.0mph /  19.3km/h 32% 0.00in /  0mm 1174.0 W/m2
13:40 87.3 °F /  30.7 °C 52.9 °F /  11.6 °C 29.66in /  1004.3hPa North 4.9mph /  7.9km/h 10.0mph /  16.1km/h 31% 0.00in /  0mm 1195.0 W/m2
13:45 87.3 °F /  30.7 °C 52.9 °F /  11.6 °C 29.65in /  1003.9hPa NNW 8.1mph /  13km/h 9.0mph /  14.5km/h 31% 0.00in /  0mm 1229.0 W/m2
13:50 87.1 °F /  30.6 °C 52.7 °F /  11.5 °C 29.65in /  1003.9hPa West 0.9mph /  1.4km/h 11.0mph /  17.7km/h 31% 0.00in /  0mm 390.0 W/m2
13:56 86.2 °F /  30.1 °C 52.9 °F /  11.6 °C 29.65in /  1003.9hPa SSW 0.9mph /  1.4km/h 7.0mph /  11.3km/h 32% 0.00in /  0mm 403.0 W/m2
14:01 85.6 °F /  29.8 °C 53.2 °F /  11.8 °C 29.65in /  1003.9hPa NNE 2.0mph /  3.2km/h 10.0mph /  16.1km/h 33% 0.00in /  0mm 320.0 W/m2
14:06 85.6 °F /  29.8 °C 53.2 °F /  11.8 °C 29.65in /  1003.9hPa NW 8.1mph /  13km/h 12.0mph /  19.3km/h 33% 0.00in /  0mm 271.0 W/m2
14:11 85.3 °F /  29.6 °C 52.9 °F /  11.6 °C 29.65in /  1003.9hPa North 4.0mph /  6.4km/h 10.0mph /  16.1km/h 33% 0.00in /  0mm 1134.0 W/m2
14:16 86.4 °F /  30.2 °C 53.1 °F /  11.7 °C 29.64in /  1003.6hPa NW 11.0mph /  17.7km/h 14.0mph /  22.5km/h 32% 0.00in /  0mm 1074.0 W/m2
14:21 86.9 °F /  30.5 °C 53.4 °F /  11.9 °C 29.64in /  1003.6hPa West 6.0mph /  9.7km/h 15.0mph /  24.1km/h 32% 0.00in /  0mm 1113.0 W/m2
14:26 87.4 °F /  30.8 °C 53.1 °F /  11.7 °C 29.63in /  1003.3hPa NNW 2.9mph /  4.7km/h 8.0mph /  12.9km/h 31% 0.00in /  0mm 1085.0 W/m2
14:31 88.2 °F /  31.2 °C 53.8 °F /  12.1 °C 29.63in /  1003.3hPa WSW 4.9mph /  7.9km/h 8.0mph /  12.9km/h 31% 0.00in /  0mm 237.0 W/m2
14:37 86.7 °F /  30.4 °C 54.1 °F /  12.3 °C 29.63in /  1003.3hPa WNW 6.9mph /  11.1km/h 11.0mph /  17.7km/h 33% 0.00in /  0mm 313.0 W/m2
14:42 86.0 °F /  30 °C 55.2 °F /  12.9 °C 29.63in /  1003.3hPa NNW 8.9mph /  14.3km/h 11.0mph /  17.7km/h 35% 0.00in /  0mm 1204.0 W/m2
14:47 86.5 °F /  30.3 °C 55.6 °F /  13.1 °C 29.63in /  1003.3hPa NNW 8.1mph /  13km/h 11.0mph /  17.7km/h 35% 0.00in /  0mm 1143.0 W/m2
14:52 86.7 °F /  30.4 °C 54.1 °F /  12.3 °C 29.63in /  1003.3hPa West 6.0mph /  9.7km/h 16.0mph /  25.7km/h 33% 0.00in /  0mm 1044.0 W/m2
14:57 86.7 °F /  30.4 °C 54.1 °F /  12.3 °C 29.62in /  1002.9hPa NNW 2.9mph /  4.7km/h 16.0mph /  25.7km/h 33% 0.00in /  0mm 1139.0 W/m2
15:02 87.3 °F /  30.7 °C 53.8 °F /  12.1 °C 29.62in /  1002.9hPa NNW 10.1mph /  16.3km/h 14.0mph /  22.5km/h 32% 0.00in /  0mm 956.0 W/m2
15:07 86.9 °F /  30.5 °C 49.8 °F /  9.9 °C 29.62in /  1002.9hPa NNW 13.0mph /  20.9km/h 17.0mph /  27.4km/h 28% 0.00in /  0mm 958.0 W/m2
15:12 86.2 °F /  30.1 °C 50.2 °F /  10.1 °C 29.62in /  1002.9hPa NNW 6.9mph /  11.1km/h 14.0mph /  22.5km/h 29% 0.00in /  0mm 705.0 W/m2
15:17 85.3 °F /  29.6 °C 52.2 °F /  11.2 °C 29.62in /  1002.9hPa North 13.0mph /  20.9km/h 14.0mph /  22.5km/h 32% 0.00in /  0mm 622.0 W/m2
15:22 84.0 °F /  28.9 °C 51.8 °F /  11 °C 29.62in /  1002.9hPa North 10.1mph /  16.3km/h 15.0mph /  24.1km/h 33% 0.00in /  0mm 207.0 W/m2
15:27 82.8 °F /  28.2 °C 49.8 °F /  9.9 °C 29.62in /  1002.9hPa North 8.9mph /  14.3km/h 12.0mph /  19.3km/h 32% 0.00in /  0mm 176.0 W/m2
15:32 81.9 °F /  27.7 °C 50.7 °F /  10.4 °C 29.62in /  1002.9hPa NE 11.0mph /  17.7km/h 17.0mph /  27.4km/h 34% 0.00in /  0mm 162.0 W/m2
15:37 80.6 °F /  27 °C 53.4 °F /  11.9 °C 29.62in /  1002.9hPa NNE 17.9mph /  28.8km/h 22.0mph /  35.4km/h 39% 0.00in /  0mm 179.0 W/m2
15:43 79.0 °F /  26.1 °C 54.0 °F /  12.2 °C 29.62in /  1002.9hPa NNE 6.9mph /  11.1km/h 15.0mph /  24.1km/h 42% 0.00in /  0mm 167.0 W/m2
15:48 78.4 °F /  25.8 °C 54.1 °F /  12.3 °C 29.61in /  1002.6hPa NW 10.1mph /  16.3km/h 14.0mph /  22.5km/h 43% 0.00in /  0mm 139.0 W/m2
15:53 77.9 °F /  25.5 °C 53.6 °F /  12 °C 29.61in /  1002.6hPa ENE 11.0mph /  17.7km/h 14.0mph /  22.5km/h 43% 0.00in /  0mm 121.0 W/m2
15:59 77.4 °F /  25.2 °C 53.1 °F /  11.7 °C 29.61in /  1002.6hPa West 8.1mph /  13km/h 13.0mph /  20.9km/h 43% 0.00in /  0mm 109.0 W/m2
16:04 77.0 °F /  25 °C 53.4 °F /  11.9 °C 29.61in /  1002.6hPa NNW 6.0mph /  9.7km/h 10.0mph /  16.1km/h 44% 0.00in /  0mm 104.0 W/m2
16:09 76.6 °F /  24.8 °C 53.8 °F /  12.1 °C 29.60in /  1002.3hPa NW 8.1mph /  13km/h 12.0mph /  19.3km/h 45% 0.00in /  0mm 104.0 W/m2
16:14 76.5 °F /  24.7 °C 54.1 °F /  12.3 °C 29.60in /  1002.3hPa NW 8.9mph /  14.3km/h 11.0mph /  17.7km/h 46% 0.00in /  0mm 102.0 W/m2
16:19 76.1 °F /  24.5 °C 53.8 °F /  12.1 °C 29.61in /  1002.6hPa North 4.9mph /  7.9km/h 8.0mph /  12.9km/h 46% 0.00in /  0mm 104.0 W/m2
16:24 76.1 °F /  24.5 °C 54.3 °F /  12.4 °C 29.61in /  1002.6hPa NNE 6.9mph /  11.1km/h 7.0mph /  11.3km/h 47% 0.00in /  0mm 107.0 W/m2
16:29 75.9 °F /  24.4 °C 54.3 °F /  12.4 °C 29.61in /  1002.6hPa Calm   8.0mph /  12.9km/h 47% 0.00in /  0mm 105.0 W/m2
16:34 75.9 °F /  24.4 °C 54.3 °F /  12.4 °C 29.62in /  1002.9hPa NW 4.0mph /  6.4km/h 7.0mph /  11.3km/h 47% 0.00in /  0mm 100.0 W/m2
16:39 75.9 °F /  24.4 °C 54.3 °F /  12.4 °C 29.62in /  1002.9hPa NNW 2.9mph /  4.7km/h 6.0mph /  9.7km/h 47% 0.00in /  0mm 95.0 W/m2
16:45 75.9 °F /  24.4 °C 54.3 °F /  12.4 °C 29.62in /  1002.9hPa NW 4.0mph /  6.4km/h 10.0mph /  16.1km/h 47% 0.00in /  0mm 100.0 W/m2
16:50 75.7 °F /  24.3 °C 54.7 °F /  12.6 °C 29.61in /  1002.6hPa Calm   5.0mph /  8km/h 48% 0.00in /  0mm 98.0 W/m2
16:55 75.9 °F /  24.4 °C 54.9 °F /  12.7 °C 29.61in /  1002.6hPa NNW 0.9mph /  1.4km/h 8.0mph /  12.9km/h 48% 0.00in /  0mm 93.0 W/m2
17:00 75.9 °F /  24.4 °C 54.9 °F /  12.7 °C 29.60in /  1002.3hPa Calm   6.0mph /  9.7km/h 48% 0.00in /  0mm 84.0 W/m2
17:05 75.9 °F /  24.4 °C 54.9 °F /  12.7 °C 29.60in /  1002.3hPa NNE 2.0mph /  3.2km/h 4.0mph /  6.4km/h 48% 0.00in /  0mm 81.0 W/m2
17:10 75.9 °F /  24.4 °C 54.9 °F /  12.7 °C 29.60in /  1002.3hPa Calm   3.0mph /  4.8km/h 48% 0.00in /  0mm 81.0 W/m2
17:15 75.9 °F /  24.4 °C 54.9 °F /  12.7 °C 29.60in /  1002.3hPa NNW 0.9mph /  1.4km/h 3.0mph /  4.8km/h 48% 0.00in /  0mm 90.0 W/m2
17:20 75.9 °F /  24.4 °C 54.9 °F /  12.7 °C 29.61in /  1002.6hPa NNW 0.9mph /  1.4km/h 7.0mph /  11.3km/h 48% 0.00in /  0mm 118.0 W/m2
17:25 75.9 °F /  24.4 °C 54.9 °F /  12.7 °C 29.61in /  1002.6hPa NNW 2.0mph /  3.2km/h 4.0mph /  6.4km/h 48% 0.00in /  0mm 171.0 W/m2
17:30 76.3 °F /  24.6 °C 55.2 °F /  12.9 °C 29.62in /  1002.9hPa NW 4.9mph /  7.9km/h 14.0mph /  22.5km/h 48% 0.00in /  0mm 207.0 W/m2
17:35 76.3 °F /  24.6 °C 55.2 °F /  12.9 °C 29.61in /  1002.6hPa NNW 6.9mph /  11.1km/h 7.0mph /  11.3km/h 48% 0.00in /  0mm 209.0 W/m2
17:40 76.3 °F /  24.6 °C 54.5 °F /  12.5 °C 29.61in /  1002.6hPa NNW 2.9mph /  4.7km/h 6.0mph /  9.7km/h 47% 0.00in /  0mm 174.0 W/m2
17:46 76.5 °F /  24.7 °C 55.4 °F /  13 °C 29.62in /  1002.9hPa North 2.0mph /  3.2km/h 7.0mph /  11.3km/h 48% 0.00in /  0mm 149.0 W/m2
17:51 76.5 °F /  24.7 °C 55.4 °F /  13 °C 29.62in /  1002.9hPa NE 4.9mph /  7.9km/h 7.0mph /  11.3km/h 48% 0.00in /  0mm 135.0 W/m2
17:56 76.6 °F /  24.8 °C 55.4 °F /  13 °C 29.62in /  1002.9hPa North 4.9mph /  7.9km/h 5.0mph /  8km/h 48% 0.00in /  0mm 114.0 W/m2
18:01 76.8 °F /  24.9 °C 55.6 °F /  13.1 °C 29.62in /  1002.9hPa NNE 2.0mph /  3.2km/h 4.0mph /  6.4km/h 48% 0.00in /  0mm 105.0 W/m2
18:07 76.8 °F /  24.9 °C 55.0 °F /  12.8 °C 29.63in /  1003.3hPa NNE 2.9mph /  4.7km/h 8.0mph /  12.9km/h 47% 0.00in /  0mm 114.0 W/m2
18:12 76.8 °F /  24.9 °C 54.5 °F /  12.5 °C 29.63in /  1003.3hPa NNW 8.1mph /  13km/h 8.1mph /  13km/h 46% 0.00in /  0mm 118.0 W/m2
18:17 76.6 °F /  24.8 °C 54.9 °F /  12.7 °C 29.63in /  1003.3hPa NNW 2.9mph /  4.7km/h 6.0mph /  9.7km/h 47% 0.00in /  0mm 178.0 W/m2
18:22 76.5 °F /  24.7 °C 55.4 °F /  13 °C 29.63in /  1003.3hPa North 4.9mph /  7.9km/h 7.0mph /  11.3km/h 48% 0.00in /  0mm 137.0 W/m2
18:27 76.3 °F /  24.6 °C 55.8 °F /  13.2 °C 29.63in /  1003.3hPa NNE 8.1mph /  13km/h 13.0mph /  20.9km/h 49% 0.00in /  0mm 116.0 W/m2
18:32 75.6 °F /  24.2 °C 55.6 °F /  13.1 °C 29.64in /  1003.6hPa NNE 4.9mph /  7.9km/h 9.0mph /  14.5km/h 50% 0.00in /  0mm 90.0 W/m2
18:37 74.7 °F /  23.7 °C 55.9 °F /  13.3 °C 29.64in /  1003.6hPa NNW 10.1mph /  16.3km/h 11.0mph /  17.7km/h 52% 0.00in /  0mm 76.0 W/m2
18:42 73.9 °F /  23.3 °C 56.3 °F /  13.5 °C 29.63in /  1003.3hPa NNW 4.9mph /  7.9km/h 12.0mph /  19.3km/h 54% 0.00in /  0mm 121.0 W/m2
18:47 73.8 °F /  23.2 °C 56.1 °F /  13.4 °C 29.63in /  1003.3hPa North 4.9mph /  7.9km/h 10.0mph /  16.1km/h 54% 0.00in /  0mm 77.0 W/m2
18:52 73.4 °F /  23 °C 56.3 °F /  13.5 °C 29.63in /  1003.3hPa NNW 6.0mph /  9.7km/h 11.0mph /  17.7km/h 55% 0.00in /  0mm 98.0 W/m2
18:57 73.2 °F /  22.9 °C 56.1 °F /  13.4 °C 29.63in /  1003.3hPa NNW 2.9mph /  4.7km/h 8.0mph /  12.9km/h 55% 0.00in /  0mm 105.0 W/m2
19:03 73.2 °F /  22.9 °C 56.1 °F /  13.4 °C 29.63in /  1003.3hPa North 2.9mph /  4.7km/h 11.0mph /  17.7km/h 55% 0.00in /  0mm 100.0 W/m2
19:08 73.6 °F /  23.1 °C 56.5 °F /  13.6 °C 29.63in /  1003.3hPa North 8.1mph /  13km/h 8.1mph /  13km/h 55% 0.00in /  0mm 79.0 W/m2
19:13 73.6 °F /  23.1 °C 56.5 °F /  13.6 °C 29.63in /  1003.3hPa NNE 4.0mph /  6.4km/h 8.0mph /  12.9km/h 55% 0.00in /  0mm 56.0 W/m2
19:18 73.6 °F /  23.1 °C 56.5 °F /  13.6 °C 29.64in /  1003.6hPa Calm   2.0mph /  3.2km/h 55% 0.00in /  0mm 44.0 W/m2
19:23 73.6 °F /  23.1 °C 56.5 °F /  13.6 °C 29.64in /  1003.6hPa NNW 6.0mph /  9.7km/h 8.0mph /  12.9km/h 55% 0.00in /  0mm 35.0 W/m2
19:28 73.6 °F /  23.1 °C 56.8 °F /  13.8 °C 29.65in /  1003.9hPa NNW 2.0mph /  3.2km/h 6.0mph /  9.7km/h 56% 0.00in /  0mm 25.0 W/m2
19:33 73.2 °F /  22.9 °C 55.0 °F /  12.8 °C 29.65in /  1003.9hPa NNW 4.9mph /  7.9km/h 8.0mph /  12.9km/h 53% 0.00in /  0mm 19.0 W/m2
19:38 73.0 °F /  22.8 °C 55.4 °F /  13 °C 29.65in /  1003.9hPa NW 4.9mph /  7.9km/h 6.0mph /  9.7km/h 54% 0.00in /  0mm 16.0 W/m2
19:44 72.9 °F /  22.7 °C 55.2 °F /  12.9 °C 29.65in /  1003.9hPa NW 2.9mph /  4.7km/h 7.0mph /  11.3km/h 54% 0.00in /  0mm 12.0 W/m2
19:49 72.7 °F /  22.6 °C 55.0 °F /  12.8 °C 29.66in /  1004.3hPa Calm   3.0mph /  4.8km/h 54% 0.00in /  0mm 9.0 W/m2
19:55 72.7 °F /  22.6 °C 55.6 °F /  13.1 °C 29.66in /  1004.3hPa Calm   6.0mph /  9.7km/h 55% 0.00in /  0mm 0.0 W/m2
20:00 72.3 °F /  22.4 °C 55.8 °F /  13.2 °C 29.67in /  1004.6hPa NW 4.0mph /  6.4km/h 5.0mph /  8km/h 56% 0.00in /  0mm 0.0 W/m2
20:05 72.1 °F /  22.3 °C 55.6 °F /  13.1 °C 29.67in /  1004.6hPa WSW 2.0mph /  3.2km/h 3.0mph /  4.8km/h 56% 0.00in /  0mm 0.0 W/m2
20:10 72.0 °F /  22.2 °C 55.4 °F /  13 °C 29.67in /  1004.6hPa Calm   1.0mph /  1.6km/h 56% 0.00in /  0mm 0.0 W/m2
20:15 71.8 °F /  22.1 °C 55.2 °F /  12.9 °C 29.67in /  1004.6hPa Calm   2.0mph /  3.2km/h 56% 0.00in /  0mm 0.0 W/m2
20:20 71.6 °F /  22 °C 55.0 °F /  12.8 °C 29.67in /  1004.6hPa WSW 2.0mph /  3.2km/h 2.0mph /  3.2km/h 56% 0.00in /  0mm 0.0 W/m2
20:25 71.4 °F /  21.9 °C 55.9 °F /  13.3 °C 29.68in /  1005hPa WSW 2.0mph /  3.2km/h 2.0mph /  3.2km/h 58% 0.00in /  0mm 0.0 W/m2
20:31 71.1 °F /  21.7 °C 55.6 °F /  13.1 °C 29.68in /  1005hPa WSW 2.0mph /  3.2km/h 3.0mph /  4.8km/h 58% 0.00in /  0mm 0.0 W/m2
20:36 70.9 °F /  21.6 °C 55.8 °F /  13.2 °C 29.68in /  1005hPa WSW 2.0mph /  3.2km/h 3.0mph /  4.8km/h 59% 0.00in /  0mm 0.0 W/m2
20:41 70.5 °F /  21.4 °C 55.6 °F /  13.1 °C 29.69in /  1005.3hPa WSW 0.9mph /  1.4km/h 3.0mph /  4.8km/h 59% 0.00in /  0mm 0.0 W/m2
20:46 70.3 °F /  21.3 °C 55.4 °F /  13 °C 29.69in /  1005.3hPa Calm   3.0mph /  4.8km/h 59% 0.00in /  0mm 0.0 W/m2
20:51 70.2 °F /  21.2 °C 55.2 °F /  12.9 °C 29.69in /  1005.3hPa Calm   2.0mph /  3.2km/h 59% 0.00in /  0mm 0.0 W/m2
20:56 70.2 °F /  21.2 °C 55.6 °F /  13.1 °C 29.70in /  1005.6hPa Calm     60% 0.00in /  0mm 0.0 W/m2
21:01 70.0 °F /  21.1 °C 55.4 °F /  13 °C 29.70in /  1005.6hPa Calm     60% 0.00in /  0mm 0.0 W/m2
21:06 69.8 °F /  21 °C 55.2 °F /  12.9 °C 29.70in /  1005.6hPa Calm     60% 0.00in /  0mm 0.0 W/m2
21:11 69.6 °F /  20.9 °C 55.0 °F /  12.8 °C 29.70in /  1005.6hPa Calm     60% 0.00in /  0mm 0.0 W/m2
21:17 69.6 °F /  20.9 °C 55.0 °F /  12.8 °C 29.70in /  1005.6hPa Calm     60% 0.00in /  0mm 0.0 W/m2
21:22 69.4 °F /  20.8 °C 54.9 °F /  12.7 °C 29.70in /  1005.6hPa Calm     60% 0.00in /  0mm 0.0 W/m2
21:27 69.4 °F /  20.8 °C 55.4 °F /  13 °C 29.70in /  1005.6hPa Calm     61% 0.00in /  0mm 0.0 W/m2
21:32 69.3 °F /  20.7 °C 55.2 °F /  12.9 °C 29.70in /  1005.6hPa Calm     61% 0.00in /  0mm 0.0 W/m2
21:37 69.3 °F /  20.7 °C 55.2 °F /  12.9 °C 29.71in /  1006hPa Calm     61% 0.00in /  0mm 0.0 W/m2
21:42 69.1 °F /  20.6 °C 55.0 °F /  12.8 °C 29.71in /  1006hPa Calm     61% 0.00in /  0mm 0.0 W/m2
21:47 69.1 °F /  20.6 °C 55.6 °F /  13.1 °C 29.71in /  1006hPa Calm     62% 0.00in /  0mm 0.0 W/m2
21:52 68.9 °F /  20.5 °C 55.4 °F /  13 °C 29.71in /  1006hPa Calm     62% 0.00in /  0mm 0.0 W/m2
21:58 68.7 °F /  20.4 °C 55.2 °F /  12.9 °C 29.71in /  1006hPa Calm     62% 0.00in /  0mm 0.0 W/m2
22:08 68.5 °F /  20.3 °C 55.4 °F /  13 °C 29.71in /  1006hPa Calm     63% 0.00in /  0mm 0.0 W/m2
22:13 68.5 °F /  20.3 °C 55.4 °F /  13 °C 29.72in /  1006.3hPa Calm     63% 0.00in /  0mm 0.0 W/m2
22:23 68.4 °F /  20.2 °C 55.2 °F /  12.9 °C 29.72in /  1006.3hPa Calm     63% 0.00in /  0mm 0.0 W/m2
22:28 68.2 °F /  20.1 °C 55.0 °F /  12.8 °C 29.72in /  1006.3hPa Calm     63% 0.00in /  0mm 0.0 W/m2
22:33 68.2 °F /  20.1 °C 55.6 °F /  13.1 °C 29.72in /  1006.3hPa Calm     64% 0.00in /  0mm 0.0 W/m2
22:43 67.8 °F /  19.9 °C 55.2 °F /  12.9 °C 29.73in /  1006.7hPa Calm     64% 0.00in /  0mm 0.0 W/m2
22:53 67.8 °F /  19.9 °C 52.9 °F /  11.6 °C 29.73in /  1006.7hPa Calm     59% 0.00in /  0mm 0.0 W/m2
22:58 67.6 °F /  19.8 °C 49.8 °F /  9.9 °C 29.73in /  1006.7hPa Calm     53% 0.00in /  0mm 0.0 W/m2
23:04 67.6 °F /  19.8 °C 48.9 °F /  9.4 °C 29.73in /  1006.7hPa Calm   1.0mph /  1.6km/h 51% 0.00in /  0mm 0.0 W/m2
23:09 67.6 °F /  19.8 °C 49.5 °F /  9.7 °C 29.73in /  1006.7hPa Calm     52% 0.00in /  0mm 0.0 W/m2
23:14 67.6 °F /  19.8 °C 48.9 °F /  9.4 °C 29.73in /  1006.7hPa Calm     51% 0.00in /  0mm 0.0 W/m2
23:19 67.5 °F /  19.7 °C 48.7 °F /  9.3 °C 29.73in /  1006.7hPa Calm     51% 0.00in /  0mm 0.0 W/m2
23:24 67.5 °F /  19.7 °C 48.7 °F /  9.3 °C 29.73in /  1006.7hPa Calm     51% 0.00in /  0mm 0.0 W/m2
23:29 67.3 °F /  19.6 °C 48.0 °F /  8.9 °C 29.73in /  1006.7hPa Calm   1.0mph /  1.6km/h 50% 0.00in /  0mm 0.0 W/m2
23:34 67.3 °F /  19.6 °C 47.5 °F /  8.6 °C 29.73in /  1006.7hPa Calm   1.0mph /  1.6km/h 49% 0.00in /  0mm 0.0 W/m2
23:39 67.3 °F /  19.6 °C 46.9 °F /  8.3 °C 29.73in /  1006.7hPa Calm   1.0mph /  1.6km/h 48% 0.00in /  0mm 0.0 W/m2
23:49 67.3 °F /  19.6 °C 46.4 °F /  8 °C 29.73in /  1006.7hPa Calm     47% 0.00in /  0mm 0.0 W/m2
23:54 67.3 °F /  19.6 °C 46.4 °F /  8 °C 29.73in /  1006.7hPa Calm     47% 0.00in /  0mm 0.0 W/m2
Olympia, Windhoek, Namibia
Compliments of Weather Underground - 3.25 mb